Time;durP1;ratioP1;P1;durP2;ratioP2;P2;SDS_P1;SDS_P2;PMS_P1;PMS_P2;Temp;Humidity;BMP_temperature;BMP_pressure;BME280_temperature;BME280_humidity;BME280_pressure;Samples;Min_cycle;Max_cycle;Signal;HPM_P1;HPM_P2
2023/05/21 00:00:09;;;;;;;20.50;18.50;;;15.10;99.90;;;;;;5009577;28;21122;-70
2023/05/21 00:02:37;;;;;;;22.10;19.93;;;15.00;99.90;;;;;;5009820;28;20476;-70
2023/05/21 00:05:08;;;;;;;24.33;19.43;;;14.90;99.90;;;;;;5009946;28;20483;-70
2023/05/21 00:07:41;;;;;;;21.50;19.50;;;14.90;99.90;;;;;;5010408;28;20522;-70
2023/05/21 00:10:10;;;;;;;18.70;17.00;;;14.90;99.90;;;;;;5010137;28;20571;-70
2023/05/21 00:12:39;;;;;;;22.30;20.30;;;14.70;99.90;;;;;;5009980;28;20445;-70
2023/05/21 00:15:07;;;;;;;22.67;20.47;;;14.70;99.90;;;;;;5010031;28;20458;-70
2023/05/21 00:17:35;;;;;;;19.93;17.90;;;14.70;99.90;;;;;;5009504;28;20460;-70
2023/05/21 00:20:06;;;;;;;21.67;19.17;;;14.70;99.90;;;;;;5010032;28;21012;-70
2023/05/21 00:22:35;;;;;;;22.03;19.93;;;14.80;99.90;;;;;;5010411;28;20452;-70
2023/05/21 00:25:05;;;;;;;21.50;19.30;;;14.70;99.90;;;;;;5009782;28;20997;-69
2023/05/21 00:27:33;;;;;;;22.90;19.57;;;14.60;99.90;;;;;;5010106;28;20588;-69
2023/05/21 00:30:00;;;;;;;22.70;20.50;;;14.60;99.90;;;;;;5009623;28;20440;-69
2023/05/21 00:32:28;;;;;;;23.17;20.97;;;14.50;99.90;;;;;;5010037;28;20883;-69
2023/05/21 00:34:57;;;;;;;21.90;19.70;;;14.60;99.90;;;;;;5010355;28;20810;-69
2023/05/21 00:37:25;;;;;;;21.73;19.43;;;14.70;99.90;;;;;;5010051;28;20482;-70
2023/05/21 00:39:52;;;;;;;21.90;19.70;;;14.60;99.90;;;;;;5010080;28;20442;-69
2023/05/21 00:42:26;;;;;;;21.30;19.30;;;14.60;99.90;;;;;;5009761;28;20445;-69
2023/05/21 00:44:54;;;;;;;21.67;19.57;;;14.60;99.90;;;;;;5009871;28;21078;-70
2023/05/21 00:47:22;;;;;;;22.27;19.97;;;14.70;99.90;;;;;;5010011;28;20558;-69
2023/05/21 00:49:52;;;;;;;23.07;20.93;;;14.70;99.90;;;;;;5010191;28;20792;-70
2023/05/21 00:52:20;;;;;;;22.50;20.10;;;14.70;99.90;;;;;;5012404;28;20826;-70
2023/05/21 00:54:50;;;;;;;23.27;20.83;;;14.70;99.90;;;;;;5013502;28;20924;-69
2023/05/21 00:57:20;;;;;;;24.37;21.73;;;14.70;99.90;;;;;;5009604;28;21041;-69
2023/05/21 00:59:51;;;;;;;26.17;21.63;;;14.80;99.90;;;;;;5013061;28;20526;-69
2023/05/21 01:02:22;;;;;;;22.30;20.10;;;14.90;99.90;;;;;;5013523;28;20506;-69
2023/05/21 01:04:51;;;;;;;22.83;20.50;;;15.00;99.90;;;;;;5012982;28;20479;-70
2023/05/21 01:07:19;;;;;;;23.43;20.97;;;14.90;99.90;;;;;;5013110;28;20472;-69
2023/05/21 01:09:48;;;;;;;22.80;20.40;;;15.00;99.90;;;;;;5012536;28;20447;-69
2023/05/21 01:12:16;;;;;;;22.20;19.90;;;14.90;99.90;;;;;;5012733;28;20439;-68
2023/05/21 01:14:44;;;;;;;23.80;21.40;;;14.80;99.90;;;;;;5013077;28;20446;-69
2023/05/21 01:17:14;;;;;;;21.70;19.60;;;14.70;99.90;;;;;;5012964;28;20970;-69
2023/05/21 01:19:44;;;;;;;24.13;21.53;;;14.60;99.90;;;;;;5012753;28;20482;-69
2023/05/21 01:22:14;;;;;;;24.53;22.13;;;14.50;99.90;;;;;;5012675;28;20541;-69
2023/05/21 01:24:46;;;;;;;24.77;21.97;;;14.70;99.90;;;;;;5012479;28;20569;-69
2023/05/21 01:27:14;;;;;;;24.30;21.90;;;14.80;99.90;;;;;;5012955;28;20487;-70
2023/05/21 01:29:42;;;;;;;24.13;21.70;;;14.80;99.90;;;;;;5012728;28;20476;-69
2023/05/21 01:32:16;;;;;;;24.70;22.23;;;14.80;99.90;;;;;;5012558;28;20492;-69
2023/05/21 01:34:50;;;;;;;24.87;22.30;;;14.80;99.90;;;;;;5012313;28;20540;-70
2023/05/21 01:37:26;;;;;;;24.43;21.83;;;14.70;99.90;;;;;;5012385;28;20504;-70
2023/05/21 01:39:59;;;;;;;24.93;22.43;;;14.50;99.90;;;;;;5012596;28;20485;-70
2023/05/21 01:42:30;;;;;;;24.90;22.30;;;14.60;99.90;;;;;;5011981;28;20498;-69
2023/05/21 01:44:59;;;;;;;27.10;24.40;;;14.50;99.90;;;;;;5012367;28;20539;-69
2023/05/21 01:47:29;;;;;;;25.83;23.13;;;14.50;99.90;;;;;;5012509;28;20979;-69
2023/05/21 01:49:57;;;;;;;24.50;22.27;;;14.50;99.90;;;;;;5012628;28;20457;-70
2023/05/21 01:52:25;;;;;;;23.93;21.63;;;14.30;99.90;;;;;;5012256;28;20456;-69
2023/05/21 01:54:55;;;;;;;25.30;22.70;;;14.30;99.90;;;;;;5012358;28;20443;-69
2023/05/21 01:57:23;;;;;;;25.97;23.57;;;14.30;99.90;;;;;;5011996;28;21051;-69
2023/05/21 01:59:53;;;;;;;26.50;23.73;;;14.20;99.90;;;;;;5012166;28;20476;-69
2023/05/21 02:02:20;;;;;;;26.10;23.50;;;14.20;99.90;;;;;;5010991;28;20441;-69
2023/05/21 02:04:49;;;;;;;25.57;22.80;;;14.20;99.90;;;;;;5010582;28;20475;-69
2023/05/21 02:07:17;;;;;;;26.23;23.60;;;14.20;99.90;;;;;;5012264;28;20581;-70
2023/05/21 02:09:45;;;;;;;25.27;22.77;;;14.10;99.90;;;;;;5012196;28;20444;-70
2023/05/21 02:12:14;;;;;;;25.63;22.80;;;14.10;99.90;;;;;;5012307;28;20492;-70
2023/05/21 02:14:42;;;;;;;25.07;22.43;;;14.20;99.90;;;;;;5010210;28;20473;-69
2023/05/21 02:17:10;;;;;;;26.53;23.57;;;14.30;99.90;;;;;;5010329;28;21013;-69
2023/05/21 02:19:38;;;;;;;26.33;23.70;;;14.30;99.90;;;;;;5011478;28;20455;-69
2023/05/21 02:22:06;;;;;;;27.83;24.90;;;14.20;99.90;;;;;;5011507;28;20471;-69
2023/05/21 02:24:34;;;;;;;25.73;23.23;;;14.20;99.90;;;;;;5011302;28;20444;-69
2023/05/21 02:27:02;;;;;;;27.50;24.60;;;14.10;99.90;;;;;;5011490;28;20469;-69
2023/05/21 02:29:32;;;;;;;25.90;23.33;;;14.10;99.90;;;;;;5011941;28;20437;-69
2023/05/21 02:32:00;;;;;;;28.23;25.27;;;14.20;99.90;;;;;;5011651;28;20450;-69
2023/05/21 02:34:29;;;;;;;27.30;24.63;;;14.20;99.90;;;;;;5011785;28;20448;-69
2023/05/21 02:36:57;;;;;;;26.73;23.43;;;14.10;99.90;;;;;;5011644;28;20473;-68
2023/05/21 02:39:26;;;;;;;26.40;23.73;;;14.00;99.90;;;;;;5011302;28;20850;-69
2023/05/21 02:41:53;;;;;;;28.70;25.17;;;13.90;99.90;;;;;;5011505;28;20858;-69
2023/05/21 02:44:22;;;;;;;25.57;22.90;;;13.90;99.90;;;;;;4991537;28;20457;-69
2023/05/21 02:46:52;;;;;;;28.67;25.03;;;14.00;99.90;;;;;;4991676;28;20494;-69
2023/05/21 02:49:20;;;;;;;25.00;22.50;;;13.90;99.90;;;;;;4991952;28;20537;-69
2023/05/21 02:51:48;;;;;;;27.10;24.30;;;13.90;99.90;;;;;;4998756;28;20450;-68
2023/05/21 02:54:16;;;;;;;27.10;24.20;;;13.90;99.90;;;;;;5011042;28;20442;-69
2023/05/21 02:56:44;;;;;;;27.83;25.03;;;13.90;99.90;;;;;;5010920;28;21243;-69
2023/05/21 02:59:12;;;;;;;27.53;24.53;;;13.80;99.90;;;;;;5011364;28;20548;-68
2023/05/21 03:01:40;;;;;;;29.80;24.80;;;13.70;99.90;;;;;;5010882;28;20449;-69
2023/05/21 03:04:09;;;;;;;28.40;25.37;;;13.70;99.90;;;;;;5008901;28;20608;-69
2023/05/21 03:06:37;;;;;;;27.20;24.40;;;13.80;99.90;;;;;;5006768;28;20476;-69
2023/05/21 03:09:05;;;;;;;26.87;23.87;;;13.80;99.90;;;;;;5010588;28;20437;-69
2023/05/21 03:11:33;;;;;;;27.10;24.30;;;13.90;99.90;;;;;;5011113;28;20787;-69
2023/05/21 03:14:01;;;;;;;27.60;24.60;;;13.90;99.90;;;;;;5010445;28;20496;-69
2023/05/21 03:16:33;;;;;;;28.30;25.30;;;13.90;99.90;;;;;;5009800;28;20462;-69
2023/05/21 03:19:01;;;;;;;28.47;25.27;;;13.70;99.90;;;;;;5010502;28;20584;-69
2023/05/21 03:21:30;;;;;;;28.07;25.00;;;13.60;99.90;;;;;;5011030;28;20452;-69
2023/05/21 03:23:59;;;;;;;28.50;25.60;;;13.70;99.90;;;;;;5010677;28;20540;-68
2023/05/21 03:26:28;;;;;;;28.17;25.47;;;13.70;99.90;;;;;;5010507;28;20524;-69
2023/05/21 03:28:56;;;;;;;26.67;23.90;;;13.70;99.90;;;;;;5010808;28;20601;-69
2023/05/21 03:31:25;;;;;;;27.23;24.33;;;13.60;99.90;;;;;;5010155;28;20452;-69
2023/05/21 03:33:53;;;;;;;27.37;24.57;;;13.70;99.90;;;;;;5010326;28;20463;-69
2023/05/21 03:36:21;;;;;;;28.27;25.17;;;13.60;99.90;;;;;;5004239;28;20522;-69
2023/05/21 03:38:50;;;;;;;29.90;25.93;;;13.50;99.90;;;;;;5010483;28;20444;-69
2023/05/21 03:41:18;;;;;;;29.80;25.60;;;13.40;99.90;;;;;;5010400;28;20946;-69
2023/05/21 03:43:46;;;;;;;28.57;25.57;;;13.40;99.90;;;;;;5009715;28;20438;-69
2023/05/21 03:46:14;;;;;;;26.43;23.63;;;13.50;99.90;;;;;;5010578;28;20490;-69
2023/05/21 03:48:42;;;;;;;28.60;25.60;;;13.40;99.90;;;;;;5010766;28;20437;-69
2023/05/21 03:51:10;;;;;;;30.87;25.90;;;13.40;99.90;;;;;;5010591;28;20459;-69
2023/05/21 03:53:38;;;;;;;29.23;26.20;;;13.40;99.90;;;;;;5010193;28;20528;-69
2023/05/21 03:56:07;;;;;;;29.97;25.80;;;13.40;99.90;;;;;;5010203;28;20453;-69
2023/05/21 03:58:35;;;;;;;29.00;25.50;;;13.30;99.90;;;;;;5010169;28;20470;-69
2023/05/21 04:01:04;;;;;;;30.13;26.83;;;13.30;99.90;;;;;;5010117;28;20473;-69
2023/05/21 04:03:34;;;;;;;28.93;25.83;;;13.30;99.90;;;;;;5010066;28;20454;-69
2023/05/21 04:06:05;;;;;;;26.87;24.17;;;13.30;99.90;;;;;;5010144;28;20477;-69
2023/05/21 04:08:33;;;;;;;29.00;26.03;;;13.20;99.90;;;;;;5010174;28;20429;-69
2023/05/21 04:11:01;;;;;;;27.70;24.63;;;13.20;99.90;;;;;;5010141;28;20940;-69
2023/05/21 04:13:30;;;;;;;26.73;23.83;;;13.30;99.90;;;;;;5009799;28;20512;-70
2023/05/21 04:15:59;;;;;;;27.80;24.50;;;13.30;99.90;;;;;;5010076;28;20434;-69
2023/05/21 04:18:27;;;;;;;27.10;24.40;;;13.40;99.90;;;;;;5010702;28;20878;-70
2023/05/21 04:20:55;;;;;;;27.00;24.20;;;13.30;99.90;;;;;;5010101;28;20488;-70
2023/05/21 04:23:23;;;;;;;26.77;23.90;;;13.40;99.90;;;;;;5009723;28;20877;-70
2023/05/21 04:25:51;;;;;;;30.87;26.00;;;13.40;99.90;;;;;;5010045;28;20549;-70
2023/05/21 04:28:19;;;;;;;24.60;22.07;;;13.50;99.90;;;;;;5013582;28;20945;-69
2023/05/21 04:30:49;;;;;;;27.00;24.27;;;13.50;99.90;;;;;;5014027;28;20452;-70
2023/05/21 04:33:19;;;;;;;24.43;21.93;;;13.60;99.90;;;;;;5014004;28;20874;-69
2023/05/21 04:35:48;;;;;;;28.20;25.30;;;13.70;99.90;;;;;;5014082;28;20927;-70
2023/05/21 04:38:18;;;;;;;25.20;22.70;;;13.70;99.90;;;;;;5013436;28;20999;-70
2023/05/21 04:40:47;;;;;;;27.80;25.00;;;13.70;99.90;;;;;;5014104;28;20501;-70
2023/05/21 04:43:15;;;;;;;26.03;23.23;;;13.80;99.90;;;;;;5013124;28;21011;-70
2023/05/21 04:45:44;;;;;;;27.43;23.90;;;13.90;99.90;;;;;;5013566;28;20507;-70
2023/05/21 04:48:14;;;;;;;26.87;24.17;;;13.90;99.90;;;;;;5013657;28;20540;-70
2023/05/21 04:50:42;;;;;;;25.87;23.27;;;13.90;99.90;;;;;;5013343;28;20516;-70
2023/05/21 04:53:11;;;;;;;26.97;24.17;;;14.00;99.90;;;;;;5013257;28;20949;-69
2023/05/21 04:55:39;;;;;;;26.43;23.63;;;14.20;99.90;;;;;;5013390;28;20445;-70
2023/05/21 04:58:07;;;;;;;26.53;23.47;;;14.30;99.90;;;;;;5013585;28;21026;-69
2023/05/21 05:00:36;;;;;;;27.23;24.50;;;14.30;99.90;;;;;;5013251;28;20477;-70
2023/05/21 05:03:04;;;;;;;26.27;23.40;;;14.40;99.90;;;;;;5013188;28;20450;-70
2023/05/21 05:05:34;;;;;;;24.17;21.67;;;14.40;99.90;;;;;;5013310;28;20948;-71
2023/05/21 05:08:03;;;;;;;26.53;23.80;;;14.30;99.90;;;;;;5013091;28;20492;-70
2023/05/21 05:10:31;;;;;;;25.73;23.10;;;14.30;99.90;;;;;;5013763;28;20437;-70
2023/05/21 05:12:59;;;;;;;26.13;23.60;;;14.50;99.90;;;;;;5012857;28;20447;-70
2023/05/21 05:15:27;;;;;;;26.50;23.77;;;14.60;99.90;;;;;;5013356;28;20446;-71
2023/05/21 05:17:55;;;;;;;25.50;22.90;;;14.60;99.90;;;;;;5013655;28;20469;-70
2023/05/21 05:20:23;;;;;;;26.70;23.97;;;14.70;99.90;;;;;;5013081;28;20973;-70
2023/05/21 05:22:52;;;;;;;29.13;24.00;;;14.70;99.90;;;;;;5012839;28;20584;-70
2023/05/21 05:25:20;;;;;;;26.93;24.27;;;14.70;99.90;;;;;;5013046;28;20442;-70
2023/05/21 05:27:48;;;;;;;26.20;23.40;;;14.80;99.90;;;;;;5012986;28;20487;-70
2023/05/21 05:30:16;;;;;;;24.40;22.00;;;14.90;99.90;;;;;;5013045;28;20455;-70
2023/05/21 05:32:45;;;;;;;24.37;21.93;;;14.90;99.90;;;;;;5012860;28;20448;-72
2023/05/21 05:35:13;;;;;;;24.23;21.87;;;15.00;99.90;;;;;;5010883;28;20441;-70
2023/05/21 05:37:41;;;;;;;24.77;22.23;;;15.00;99.90;;;;;;5010981;28;20481;-70
2023/05/21 05:40:11;;;;;;;23.53;21.23;;;15.10;99.90;;;;;;5009009;28;20483;-70
2023/05/21 05:42:39;;;;;;;24.87;22.37;;;15.20;99.90;;;;;;5009614;28;20875;-69
2023/05/21 05:45:08;;;;;;;24.63;22.23;;;15.40;99.90;;;;;;5008872;28;20510;-70
2023/05/21 05:47:36;;;;;;;24.67;22.00;;;15.40;99.90;;;;;;5009972;28;20516;-70
2023/05/21 05:50:04;;;;;;;23.23;21.03;;;15.40;99.90;;;;;;5012416;28;20438;-70
2023/05/21 05:52:32;;;;;;;22.57;20.47;;;15.50;99.90;;;;;;5012257;28;20448;-71
2023/05/21 05:55:00;;;;;;;24.83;22.57;;;15.60;99.90;;;;;;5012335;28;20452;-70
2023/05/21 05:57:29;;;;;;;25.33;22.77;;;15.70;99.90;;;;;;5012286;28;21294;-70
2023/05/21 05:59:57;;;;;;;21.63;19.43;;;15.80;99.90;;;;;;5012265;28;20479;-70
2023/05/21 06:02:25;;;;;;;23.53;21.23;;;16.00;99.90;;;;;;5012335;28;20515;-70
2023/05/21 06:04:53;;;;;;;22.60;20.13;;;16.10;99.90;;;;;;5012364;28;20442;-70
2023/05/21 06:07:21;;;;;;;23.07;20.73;;;16.20;99.90;;;;;;5012144;28;20549;-70
2023/05/21 06:09:49;;;;;;;22.67;20.47;;;16.20;99.90;;;;;;5011236;28;20534;-70
2023/05/21 06:12:17;;;;;;;23.50;21.40;;;16.30;99.90;;;;;;5009031;28;20507;-71
2023/05/21 06:14:47;;;;;;;24.20;21.67;;;16.40;99.90;;;;;;5010751;28;20462;-73
2023/05/21 06:17:15;;;;;;;24.80;22.30;;;16.40;99.90;;;;;;5010474;28;20553;-70
2023/05/21 06:19:44;;;;;;;22.97;20.87;;;16.50;99.90;;;;;;5010164;28;20950;-70
2023/05/21 06:22:12;;;;;;;24.97;22.50;;;16.50;99.90;;;;;;5010113;28;20547;-69
2023/05/21 06:24:40;;;;;;;24.80;22.30;;;16.50;99.90;;;;;;5012080;28;20456;-70
2023/05/21 06:27:08;;;;;;;23.07;20.87;;;16.60;99.90;;;;;;5009386;28;20494;-70
2023/05/21 06:29:36;;;;;;;24.67;22.30;;;16.70;99.80;;;;;;5011705;28;20450;-70
2023/05/21 06:32:06;;;;;;;23.90;21.50;;;16.70;99.80;;;;;;5011445;28;20441;-72
2023/05/21 06:34:34;;;;;;;25.13;22.70;;;16.70;99.80;;;;;;5011234;28;20876;-70
2023/05/21 06:37:03;;;;;;;24.70;22.40;;;16.60;99.90;;;;;;5011456;28;20720;-71
2023/05/21 06:39:31;;;;;;;25.70;23.17;;;16.60;99.90;;;;;;5011754;28;20449;-70
2023/05/21 06:41:59;;;;;;;23.47;21.17;;;16.60;99.90;;;;;;5011577;28;20468;-70
2023/05/21 06:44:26;;;;;;;24.53;22.23;;;16.60;99.90;;;;;;5011261;28;20456;-70
2023/05/21 06:46:54;;;;;;;26.70;23.87;;;16.60;99.90;;;;;;5011105;28;20884;-70
2023/05/21 06:49:24;;;;;;;24.70;22.20;;;16.60;99.90;;;;;;5011040;28;20449;-69
2023/05/21 06:51:52;;;;;;;25.53;23.03;;;16.50;99.90;;;;;;5011363;28;20453;-70
2023/05/21 06:54:22;;;;;;;23.90;21.40;;;16.50;99.90;;;;;;5011201;28;20442;-70
2023/05/21 06:56:53;;;;;;;25.30;22.67;;;16.60;99.90;;;;;;5010379;28;20880;-69
2023/05/21 06:59:21;;;;;;;23.47;21.17;;;16.60;99.90;;;;;;5007395;28;20480;-69
2023/05/21 07:01:52;;;;;;;25.07;22.73;;;16.70;99.90;;;;;;5010880;28;20529;-69
2023/05/21 07:04:24;;;;;;;24.47;22.10;;;16.70;99.90;;;;;;5010218;28;20453;-69
2023/05/21 07:06:53;;;;;;;24.47;22.07;;;16.90;99.90;;;;;;5010834;28;20873;-70
2023/05/21 07:09:21;;;;;;;25.10;22.70;;;17.00;99.70;;;;;;5011121;28;20511;-70
2023/05/21 07:11:49;;;;;;;23.80;21.40;;;17.00;98.70;;;;;;5009938;28;20449;-70
2023/05/21 07:14:17;;;;;;;25.60;22.70;;;17.10;98.90;;;;;;5010457;28;20492;-70
2023/05/21 07:16:45;;;;;;;24.53;22.30;;;17.30;98.40;;;;;;5010409;28;20487;-70
2023/05/21 07:19:14;;;;;;;22.37;20.10;;;17.40;97.70;;;;;;5010972;28;20484;-70
2023/05/21 07:21:43;;;;;;;23.30;21.13;;;17.40;97.70;;;;;;5010187;28;20471;-70
2023/05/21 07:24:11;;;;;;;21.93;20.00;;;17.60;97.40;;;;;;5003723;28;21218;-70
2023/05/21 07:26:39;;;;;;;22.23;20.00;;;17.60;96.50;;;;;;5008794;28;20568;-70
2023/05/21 07:29:07;;;;;;;22.30;20.20;;;17.60;96.30;;;;;;5003486;28;20535;-72
2023/05/21 07:31:35;;;;;;;20.97;19.07;;;17.80;95.90;;;;;;5009713;28;20504;-74
2023/05/21 07:34:03;;;;;;;21.17;19.17;;;18.00;95.20;;;;;;5009840;28;20457;-72
2023/05/21 07:36:32;;;;;;;23.17;20.83;;;18.00;95.00;;;;;;5009693;28;20509;-69
2023/05/21 07:39:02;;;;;;;22.50;20.23;;;18.10;94.80;;;;;;5009447;28;20529;-70
2023/05/21 07:41:31;;;;;;;22.10;19.97;;;18.20;93.10;;;;;;5009039;28;21039;-70
2023/05/21 07:44:00;;;;;;;21.70;19.63;;;18.30;92.40;;;;;;5009348;28;20441;-70
2023/05/21 07:46:28;;;;;;;18.53;16.73;;;18.50;92.80;;;;;;5010554;28;20498;-70
2023/05/21 07:48:56;;;;;;;20.63;18.60;;;18.70;91.70;;;;;;5010317;28;20482;-71
2023/05/21 07:51:24;;;;;;;21.03;19.17;;;18.90;91.30;;;;;;5010251;28;20959;-70
2023/05/21 07:53:52;;;;;;;21.47;19.50;;;19.00;91.30;;;;;;5009889;28;20484;-69
2023/05/21 07:56:23;;;;;;;20.87;18.97;;;19.20;90.20;;;;;;5010408;28;20461;-70
2023/05/21 07:58:52;;;;;;;20.50;18.60;;;19.30;90.90;;;;;;5010180;28;20440;-70
2023/05/21 08:01:21;;;;;;;20.47;18.57;;;19.50;90.80;;;;;;5009313;28;21003;-71
2023/05/21 08:03:49;;;;;;;16.83;15.33;;;19.70;90.30;;;;;;5000857;28;20454;-71
2023/05/21 08:06:17;;;;;;;15.93;14.63;;;19.70;87.60;;;;;;5005608;28;20878;-71
2023/05/21 08:08:45;;;;;;;17.83;16.07;;;19.80;83.70;;;;;;5005576;28;20516;-71
2023/05/21 08:11:13;;;;;;;17.30;15.87;;;19.80;87.30;;;;;;5004381;28;20438;-71
2023/05/21 08:13:42;;;;;;;18.83;16.93;;;20.00;86.70;;;;;;5003217;28;20453;-70
2023/05/21 08:16:11;;;;;;;19.50;17.77;;;20.20;86.50;;;;;;5003001;28;20536;-71
2023/05/21 08:18:38;;;;;;;18.37;16.57;;;20.10;84.60;;;;;;5003571;28;20984;-72
2023/05/21 08:21:07;;;;;;;18.10;16.30;;;20.20;85.70;;;;;;5004276;28;21063;-71
2023/05/21 08:23:35;;;;;;;17.97;16.30;;;20.50;87.60;;;;;;5003939;28;21024;-69
2023/05/21 08:26:03;;;;;;;17.80;16.10;;;20.80;84.70;;;;;;5003300;28;20434;-70
2023/05/21 08:28:31;;;;;;;17.10;15.70;;;20.70;82.50;;;;;;5002803;28;20477;-70
2023/05/21 08:31:00;;;;;;;18.10;16.50;;;20.90;77.90;;;;;;5003661;28;20434;-70
2023/05/21 08:33:28;;;;;;;16.17;14.73;;;21.00;78.40;;;;;;5003687;28;20454;-71
2023/05/21 08:35:56;;;;;;;17.17;15.67;;;21.10;78.80;;;;;;5003827;28;20462;-70
2023/05/21 08:38:25;;;;;;;15.97;14.67;;;21.10;75.20;;;;;;5004232;28;20446;-70
2023/05/21 08:40:57;;;;;;;16.90;15.40;;;21.10;79.60;;;;;;5004543;28;20442;-70
2023/05/21 08:43:28;;;;;;;17.30;15.70;;;21.10;76.60;;;;;;5003828;28;20442;-69
2023/05/21 08:46:00;;;;;;;16.20;14.80;;;21.10;78.90;;;;;;5003557;28;20940;-73
2023/05/21 08:48:31;;;;;;;17.80;16.30;;;21.40;81.00;;;;;;5004794;28;20521;-74
2023/05/21 08:50:59;;;;;;;18.33;16.70;;;21.50;78.80;;;;;;5004609;28;20434;-73
2023/05/21 08:53:28;;;;;;;17.10;15.70;;;21.50;75.50;;;;;;5003545;28;20485;-70
2023/05/21 08:55:56;;;;;;;19.80;18.00;;;21.30;76.10;;;;;;5003823;28;20529;-72
2023/05/21 08:58:25;;;;;;;17.47;15.67;;;21.20;76.10;;;;;;5001438;28;20438;-72
2023/05/21 09:00:54;;;;;;;18.30;16.60;;;20.90;78.80;;;;;;5003573;28;20442;-73
2023/05/21 09:03:23;;;;;;;17.43;16.03;;;21.10;77.80;;;;;;5000769;28;20438;-72
2023/05/21 09:05:56;;;;;;;15.90;14.60;;;21.10;76.70;;;;;;5003806;28;20437;-72
2023/05/21 09:08:31;;;;;;;16.43;15.03;;;20.80;76.00;;;;;;5004026;28;20490;-73
2023/05/21 09:11:01;;;;;;;15.43;14.10;;;20.80;78.60;;;;;;5002019;28;20476;-71
2023/05/21 09:13:31;;;;;;;14.00;12.70;;;21.10;80.20;;;;;;5005540;28;20469;-70
2023/05/21 09:15:59;;;;;;;14.20;13.10;;;21.40;74.50;;;;;;5008133;28;20441;-72
2023/05/21 09:18:27;;;;;;;13.67;12.37;;;21.60;73.40;;;;;;5007590;28;20759;-71
2023/05/21 09:20:56;;;;;;;15.30;14.00;;;21.50;71.70;;;;;;5006638;28;20961;-69
2023/05/21 09:23:28;;;;;;;15.53;14.23;;;21.40;73.00;;;;;;5005805;28;20438;-71
2023/05/21 09:25:56;;;;;;;14.90;13.60;;;21.30;75.10;;;;;;5007494;28;20438;-71
2023/05/21 09:28:25;;;;;;;14.93;13.47;;;21.40;73.30;;;;;;5007150;28;20453;-71
2023/05/21 09:30:53;;;;;;;14.13;12.73;;;21.20;71.70;;;;;;5006993;28;20446;-70
2023/05/21 09:33:25;;;;;;;14.23;12.83;;;21.20;76.00;;;;;;5006612;28;20999;-71
2023/05/21 09:35:53;;;;;;;13.97;12.83;;;21.60;76.60;;;;;;5006989;28;20454;-70
2023/05/21 09:38:24;;;;;;;14.30;12.97;;;21.90;74.00;;;;;;5006732;28;20454;-71
2023/05/21 09:40:55;;;;;;;13.33;12.13;;;22.20;69.60;;;;;;5006837;28;20438;-70
2023/05/21 09:43:23;;;;;;;13.60;12.40;;;22.20;69.60;;;;;;5005460;28;20525;-71
2023/05/21 09:45:52;;;;;;;14.00;12.87;;;22.40;71.30;;;;;;5007137;28;20453;-73
2023/05/21 09:48:33;;;;;;;14.13;12.83;;;23.10;67.40;;;;;;5005405;28;20979;-70
2023/05/21 09:51:13;;;;;;;13.57;12.40;;;23.50;66.00;;;;;;5006727;28;20477;-70
2023/05/21 09:53:49;;;;;;;12.90;11.80;;;24.00;67.40;;;;;;5006086;28;20975;-71
2023/05/21 09:56:23;;;;;;;15.13;13.87;;;24.80;64.90;;;;;;5005757;28;20461;-71
2023/05/21 09:58:55;;;;;;;12.53;11.57;;;25.40;65.60;;;;;;5005444;28;20529;-71
2023/05/21 10:01:24;;;;;;;13.00;12.00;;;26.30;61.60;;;;;;5005927;28;20430;-71
2023/05/21 10:03:55;;;;;;;12.87;11.87;;;26.20;58.10;;;;;;5005914;28;21063;-70
2023/05/21 10:06:26;;;;;;;12.70;11.70;;;26.10;58.50;;;;;;5006134;28;20817;-70
2023/05/21 10:08:57;;;;;;;13.03;12.13;;;26.30;57.90;;;;;;5005963;28;20540;-72
2023/05/21 10:11:27;;;;;;;13.13;12.13;;;26.70;58.20;;;;;;5006041;28;20440;-70
2023/05/21 10:14:01;;;;;;;12.00;11.10;;;27.00;52.90;;;;;;5005888;28;20525;-70
2023/05/21 10:16:32;;;;;;;12.53;11.63;;;27.60;52.40;;;;;;5005390;28;20457;-70
2023/05/21 10:19:01;;;;;;;12.37;11.30;;;27.80;52.80;;;;;;5005782;28;20434;-71
2023/05/21 10:21:30;;;;;;;11.17;10.17;;;28.00;52.60;;;;;;5005478;28;20449;-72
2023/05/21 10:24:00;;;;;;;12.87;11.87;;;28.40;53.60;;;;;;5005583;28;20442;-71
2023/05/21 10:26:29;;;;;;;12.00;10.77;;;28.90;52.60;;;;;;5005903;28;20541;-71
2023/05/21 10:28:58;;;;;;;12.60;11.60;;;29.40;50.80;;;;;;5005899;28;21259;-72
2023/05/21 10:31:27;;;;;;;12.80;11.80;;;29.40;48.20;;;;;;5006766;28;21082;-72
2023/05/21 10:33:58;;;;;;;10.83;10.03;;;29.50;50.40;;;;;;5005804;28;21008;-73
2023/05/21 10:36:30;;;;;;;11.07;10.17;;;29.60;47.00;;;;;;5005672;28;20485;-72
2023/05/21 10:39:01;;;;;;;10.00;9.20;;;29.60;49.00;;;;;;5005956;28;20484;-73
2023/05/21 10:41:36;;;;;;;11.97;10.87;;;29.40;50.30;;;;;;5006444;28;20433;-72
2023/05/21 10:44:13;;;;;;;12.30;11.40;;;29.00;49.30;;;;;;5005426;28;20866;-72
2023/05/21 10:47:04;;;;;;;13.30;12.13;;;28.30;48.50;;;;;;5005361;28;20533;-73
2023/05/21 10:49:59;;;;;;;11.50;10.60;;;27.10;49.40;;;;;;5005579;28;21176;-73
2023/05/21 10:52:44;;;;;;;11.87;10.90;;;26.60;53.60;;;;;;5005131;28;20562;-73
2023/05/21 10:55:32;;;;;;;11.80;10.80;;;26.30;52.90;;;;;;5005241;28;20537;-73
2023/05/21 10:58:45;;;;;;;12.20;11.20;;;26.60;54.10;;;;;;5005905;28;20512;-73
2023/05/21 11:01:15;;;;;;;11.90;10.90;;;27.00;53.10;;;;;;5007156;28;20445;-73
2023/05/21 11:03:43;;;;;;;12.03;11.10;;;27.70;49.50;;;;;;5007589;28;20446;-72
2023/05/21 11:06:11;;;;;;;11.70;10.70;;;27.70;48.50;;;;;;5007321;28;20438;-73
2023/05/21 11:08:47;;;;;;;11.63;10.63;;;27.80;49.30;;;;;;5004909;28;20462;-73
2023/05/21 11:11:42;;;;;;;10.73;9.93;;;28.10;49.90;;;;;;5005265;28;20503;-72
2023/05/21 11:14:26;;;;;;;11.70;10.80;;;27.70;49.00;;;;;;5004104;28;20534;-72
2023/05/21 11:16:55;;;;;;;11.17;10.37;;;26.30;50.60;;;;;;5004890;28;20516;-73
2023/05/21 11:19:34;;;;;;;10.87;9.97;;;26.30;52.30;;;;;;5004480;28;20434;-73
2023/05/21 11:22:07;;;;;;;11.43;10.33;;;26.70;55.30;;;;;;5004978;28;20475;-73
2023/05/21 11:24:38;;;;;;;11.07;10.07;;;27.40;52.50;;;;;;5004243;28;20525;-73
2023/05/21 11:27:08;;;;;;;12.10;11.03;;;28.10;53.30;;;;;;5005634;28;21155;-72
2023/05/21 11:29:44;;;;;;;11.47;10.50;;;27.90;48.90;;;;;;5006532;28;20518;-74
2023/05/21 11:32:16;;;;;;;10.80;10.00;;;26.90;51.60;;;;;;5006258;28;21186;-72
2023/05/21 11:34:56;;;;;;;10.67;9.77;;;27.00;54.60;;;;;;5004621;28;20442;-71
2023/05/21 11:37:29;;;;;;;10.93;9.97;;;27.70;53.70;;;;;;5003917;28;20469;-72
2023/05/21 11:40:16;;;;;;;11.13;10.33;;;28.40;49.00;;;;;;5004696;28;20436;-73
2023/05/21 11:42:50;;;;;;;10.80;9.87;;;28.70;48.50;;;;;;5006475;28;20537;-74
2023/05/21 11:45:23;;;;;;;10.87;9.80;;;28.80;46.20;;;;;;5006867;28;21137;-72
2023/05/21 11:47:52;;;;;;;10.57;9.53;;;28.60;47.40;;;;;;5006967;28;20461;-71
2023/05/21 11:50:20;;;;;;;11.20;10.33;;;28.90;46.80;;;;;;5006659;28;20493;-72
2023/05/21 11:52:49;;;;;;;10.40;9.60;;;29.30;49.00;;;;;;5006420;28;21007;-76
2023/05/21 11:55:22;;;;;;;10.60;9.80;;;29.20;48.40;;;;;;5006514;28;20940;-73
2023/05/21 11:57:53;;;;;;;11.27;10.27;;;28.90;49.50;;;;;;5006635;28;20461;-71
2023/05/21 12:00:22;;;;;;;11.20;10.30;;;28.50;48.00;;;;;;5006490;28;20442;-74
2023/05/21 12:02:51;;;;;;;10.97;10.17;;;28.40;48.40;;;;;;5006519;28;20441;-74
2023/05/21 12:05:21;;;;;;;10.73;9.93;;;28.30;50.40;;;;;;5006583;28;20442;-75
2023/05/21 12:07:49;;;;;;;9.77;8.87;;;28.60;54.20;;;;;;5006451;28;20490;-72
2023/05/21 12:10:21;;;;;;;10.87;9.97;;;28.90;50.90;;;;;;5006344;28;20481;-71
2023/05/21 12:12:50;;;;;;;10.40;9.60;;;28.90;46.80;;;;;;5005741;28;20894;-72
2023/05/21 12:15:25;;;;;;;10.90;10.10;;;28.80;48.10;;;;;;5006694;28;20441;-71
2023/05/21 12:17:55;;;;;;;11.17;10.10;;;29.20;49.30;;;;;;5006062;28;22090;-71
2023/05/21 12:20:26;;;;;;;9.63;8.73;;;28.90;46.70;;;;;;5005526;28;20444;-73
2023/05/21 12:22:56;;;;;;;9.97;9.27;;;28.50;47.10;;;;;;5006043;28;20445;-74
2023/05/21 12:25:24;;;;;;;9.47;8.67;;;28.00;46.60;;;;;;5005790;28;21112;-74
2023/05/21 12:27:56;;;;;;;11.07;10.13;;;27.70;47.70;;;;;;5006763;28;20465;-73
2023/05/21 12:30:26;;;;;;;10.20;9.40;;;27.70;48.60;;;;;;5006111;28;20474;-73
2023/05/21 12:32:57;;;;;;;9.77;8.97;;;27.80;53.70;;;;;;5005700;28;20453;-71
2023/05/21 12:35:25;;;;;;;9.83;9.03;;;28.00;47.10;;;;;;5007173;28;20438;-72
2023/05/21 12:37:53;;;;;;;11.80;10.90;;;27.90;49.20;;;;;;5006528;28;20545;-72
2023/05/21 12:40:34;;;;;;;10.40;9.60;;;27.90;53.10;;;;;;5006121;28;20952;-73